Time;durP1;ratioP1;P1;durP2;ratioP2;P2;SDS_P1;SDS_P2;PMS_P1;PMS_P2;Temp;Humidity;BMP_temperature;BMP_pressure;BME280_temperature;BME280_humidity;BME280_pressure;Samples;Min_cycle;Max_cycle;Signal;HPM_P1;HPM_P2
2022/02/24 00:01:44;;;;;;;7.60;2.72;;;6.50;99.90;;;;;;5075251;28;20463;-54
2022/02/24 00:04:10;;;;;;;9.70;2.08;;;6.50;99.90;;;;;;5069077;28;20100;-56
2022/02/24 00:06:35;;;;;;;8.07;1.77;;;6.60;99.90;;;;;;5074673;28;20093;-54
2022/02/24 00:09:01;;;;;;;6.82;2.35;;;6.60;99.90;;;;;;5088695;28;20036;-54
2022/02/24 00:11:27;;;;;;;5.00;1.80;;;6.60;99.90;;;;;;5089114;28;20028;-56
2022/02/24 00:13:52;;;;;;;3.75;1.60;;;6.70;99.90;;;;;;5088872;28;20028;-52
2022/02/24 00:16:18;;;;;;;6.68;2.03;;;6.70;99.90;;;;;;5087703;28;20024;-52
2022/02/24 00:18:43;;;;;;;5.05;2.33;;;6.70;99.90;;;;;;5086542;28;20020;-51
2022/02/24 00:21:09;;;;;;;7.65;1.70;;;6.70;99.90;;;;;;5069057;28;20024;-54
2022/02/24 00:23:35;;;;;;;6.40;2.60;;;6.80;99.90;;;;;;5067910;28;20058;-53
2022/02/24 00:26:00;;;;;;;4.18;2.20;;;6.80;99.90;;;;;;5081179;28;20028;-57
2022/02/24 00:28:26;;;;;;;6.82;1.92;;;6.80;99.90;;;;;;5070058;28;20106;-51
2022/02/24 00:30:51;;;;;;;6.72;2.45;;;6.80;99.90;;;;;;5070277;28;20048;-56
2022/02/24 00:33:17;;;;;;;8.93;2.40;;;6.90;99.90;;;;;;5068966;28;20037;-54
2022/02/24 00:35:43;;;;;;;4.78;2.33;;;6.90;99.90;;;;;;5075277;28;20039;-54
2022/02/24 00:38:08;;;;;;;8.55;2.58;;;6.90;99.90;;;;;;5074125;28;20036;-54
2022/02/24 00:40:34;;;;;;;5.85;1.67;;;6.90;99.90;;;;;;5068991;28;20098;-54
2022/02/24 00:42:59;;;;;;;5.45;1.58;;;6.90;99.90;;;;;;5068656;28;20017;-52
2022/02/24 00:45:25;;;;;;;7.63;2.03;;;6.80;99.90;;;;;;5077034;28;20051;-54
2022/02/24 00:47:50;;;;;;;5.53;1.83;;;6.80;99.90;;;;;;5087254;28;20020;-54
2022/02/24 00:50:16;;;;;;;5.28;2.28;;;6.80;99.90;;;;;;5070640;28;20024;-52
2022/02/24 00:52:42;;;;;;;6.28;2.13;;;6.80;99.90;;;;;;5077816;28;20047;-55
2022/02/24 00:55:08;;;;;;;5.55;2.22;;;6.80;99.90;;;;;;5074571;28;20028;-54
2022/02/24 00:57:34;;;;;;;7.95;2.35;;;6.80;99.90;;;;;;5088341;28;20547;-53
2022/02/24 00:59:59;;;;;;;4.50;2.25;;;6.90;99.90;;;;;;5087830;28;20111;-53
2022/02/24 01:02:25;;;;;;;6.15;2.03;;;6.90;99.90;;;;;;5086301;28;20028;-56
2022/02/24 01:04:50;;;;;;;7.95;2.45;;;6.80;99.90;;;;;;5068534;28;20032;-56
2022/02/24 01:07:16;;;;;;;5.10;2.28;;;6.80;99.90;;;;;;5072667;28;20442;-54
2022/02/24 01:09:41;;;;;;;8.23;2.78;;;6.80;99.90;;;;;;5070632;28;20047;-54
2022/02/24 01:12:08;;;;;;;5.45;2.17;;;6.70;99.90;;;;;;5072442;28;20532;-54
2022/02/24 01:14:33;;;;;;;5.35;1.90;;;6.70;99.90;;;;;;5072634;28;20116;-54
2022/02/24 01:16:59;;;;;;;5.45;2.22;;;6.70;99.90;;;;;;5076881;28;20119;-53
2022/02/24 01:19:25;;;;;;;2.72;1.77;;;6.70;99.90;;;;;;5079983;28;20036;-55
2022/02/24 01:21:50;;;;;;;7.03;1.98;;;6.70;99.90;;;;;;5091555;28;20130;-57
2022/02/24 01:24:16;;;;;;;3.92;2.08;;;6.70;99.90;;;;;;5092099;28;20036;-56
2022/02/24 01:26:42;;;;;;;6.68;2.15;;;6.70;99.90;;;;;;5083394;28;20033;-55
2022/02/24 01:29:08;;;;;;;3.83;2.00;;;6.70;99.90;;;;;;5072380;28;20066;-58
2022/02/24 01:31:34;;;;;;;4.15;2.17;;;6.70;99.90;;;;;;5071865;28;20032;-55
2022/02/24 01:34:00;;;;;;;5.28;1.63;;;6.60;99.90;;;;;;5072782;28;20036;-54
2022/02/24 01:36:25;;;;;;;6.25;2.30;;;6.60;99.90;;;;;;5065041;28;20026;-57
2022/02/24 01:38:51;;;;;;;7.57;2.60;;;6.60;99.90;;;;;;5075616;28;20032;-55
2022/02/24 01:41:16;;;;;;;5.22;2.35;;;6.60;99.90;;;;;;5080614;28;20025;-55
2022/02/24 01:43:44;;;;;;;5.32;2.05;;;6.50;99.90;;;;;;5071746;28;20020;-53
2022/02/24 01:46:10;;;;;;;8.88;2.50;;;6.50;99.90;;;;;;5089823;28;20467;-56
2022/02/24 01:48:35;;;;;;;6.28;2.17;;;6.60;99.90;;;;;;5092105;28;20055;-57
2022/02/24 01:51:01;;;;;;;6.10;2.55;;;6.60;99.90;;;;;;5080954;28;20463;-57
2022/02/24 01:53:27;;;;;;;6.35;1.90;;;6.50;99.90;;;;;;5071332;28;20179;-54
2022/02/24 01:55:52;;;;;;;4.68;2.40;;;6.50;99.90;;;;;;5067556;28;20392;-54
2022/02/24 01:58:18;;;;;;;5.95;2.45;;;6.50;99.90;;;;;;5071615;28;20039;-56
2022/02/24 02:00:44;;;;;;;7.88;2.38;;;6.50;99.90;;;;;;5089117;28;20638;-57
2022/02/24 02:03:10;;;;;;;4.97;1.95;;;6.50;99.90;;;;;;5089286;28;20259;-56
2022/02/24 02:05:36;;;;;;;6.35;2.20;;;6.50;99.90;;;;;;5078220;28;20530;-58
2022/02/24 02:08:04;;;;;;;9.00;2.53;;;6.50;99.90;;;;;;5071228;28;20048;-53
2022/02/24 02:10:30;;;;;;;5.70;2.30;;;6.50;99.90;;;;;;5071643;28;20119;-57
2022/02/24 02:12:55;;;;;;;5.15;2.08;;;6.40;99.90;;;;;;5084228;28;20093;-54
2022/02/24 02:15:21;;;;;;;3.63;2.03;;;6.40;99.90;;;;;;5081015;28;20036;-54
2022/02/24 02:17:47;;;;;;;11.57;2.33;;;6.40;99.90;;;;;;5071412;28;20597;-54
2022/02/24 02:20:13;;;;;;;6.70;2.47;;;6.40;99.90;;;;;;5071074;28;20062;-53
2022/02/24 02:22:39;;;;;;;6.13;2.30;;;6.40;99.90;;;;;;5071141;28;20385;-54
2022/02/24 02:25:07;;;;;;;3.90;1.73;;;6.40;99.90;;;;;;5080385;28;20039;-53
2022/02/24 02:27:33;;;;;;;4.32;2.40;;;6.40;99.90;;;;;;5091099;28;20517;-55
2022/02/24 02:29:59;;;;;;;2.70;1.48;;;6.40;99.90;;;;;;5091396;28;20040;-56
2022/02/24 02:32:25;;;;;;;5.93;2.03;;;6.30;99.90;;;;;;5070281;28;20039;-56
2022/02/24 02:34:51;;;;;;;7.40;2.20;;;6.40;99.90;;;;;;5078052;28;20555;-56
2022/02/24 02:37:16;;;;;;;6.63;2.20;;;6.40;99.90;;;;;;5090669;28;20036;-54
2022/02/24 02:39:42;;;;;;;5.88;2.58;;;6.30;99.90;;;;;;5090677;28;20457;-51
2022/02/24 02:42:07;;;;;;;4.93;1.75;;;6.40;99.90;;;;;;5087601;28;20031;-53
2022/02/24 02:44:33;;;;;;;3.25;1.63;;;6.30;99.90;;;;;;5089148;28;20028;-55
2022/02/24 02:46:59;;;;;;;7.07;2.63;;;6.30;99.90;;;;;;5079263;28;20057;-54
2022/02/24 02:49:24;;;;;;;5.57;2.40;;;6.40;99.90;;;;;;5090907;28;20036;-56
2022/02/24 02:51:52;;;;;;;5.45;2.75;;;6.30;99.90;;;;;;5060483;28;20109;-54
2022/02/24 02:54:17;;;;;;;10.32;2.53;;;6.30;99.90;;;;;;5070871;28;20476;-56
2022/02/24 02:56:43;;;;;;;4.30;1.95;;;6.30;99.90;;;;;;5089569;28;20036;-55
2022/02/24 02:59:09;;;;;;;8.35;2.40;;;6.30;99.90;;;;;;5089620;28;20040;-56
2022/02/24 03:01:34;;;;;;;7.10;2.35;;;6.30;99.90;;;;;;5084317;28;20029;-54
2022/02/24 03:04:00;;;;;;;4.15;2.00;;;6.30;99.90;;;;;;5070142;28;20024;-54
2022/02/24 03:06:26;;;;;;;6.07;3.05;;;6.30;99.90;;;;;;5088423;28;20484;-54
2022/02/24 03:08:51;;;;;;;6.80;2.30;;;6.30;99.90;;;;;;5085223;28;20028;-55
2022/02/24 03:11:17;;;;;;;7.93;2.10;;;6.30;99.90;;;;;;5070007;28;20040;-53
2022/02/24 03:13:42;;;;;;;4.13;2.50;;;6.40;99.90;;;;;;5071405;28;20032;-53
2022/02/24 03:16:08;;;;;;;7.97;3.10;;;6.40;99.90;;;;;;5062887;28;20024;-53
2022/02/24 03:18:33;;;;;;;6.18;2.75;;;6.40;99.90;;;;;;5051906;28;20058;-53
2022/02/24 03:20:59;;;;;;;8.02;2.40;;;6.40;99.90;;;;;;5070011;28;20399;-54
2022/02/24 03:23:24;;;;;;;5.32;2.47;;;6.40;99.90;;;;;;5069285;28;20052;-53
2022/02/24 03:25:50;;;;;;;4.63;2.33;;;6.50;99.90;;;;;;5078484;28;20024;-52
2022/02/24 03:28:16;;;;;;;9.32;3.45;;;6.50;99.90;;;;;;5089404;28;20024;-56
2022/02/24 03:30:41;;;;;;;7.28;3.38;;;6.50;99.90;;;;;;5089998;28;20036;-54
2022/02/24 03:33:07;;;;;;;8.20;3.05;;;6.50;99.90;;;;;;5071636;28;20040;-53
2022/02/24 03:35:32;;;;;;;9.48;3.13;;;6.50;99.90;;;;;;5077843;28;20161;-54
2022/02/24 03:38:01;;;;;;;7.05;2.50;;;6.50;99.90;;;;;;5069714;28;20043;-51
2022/02/24 03:40:27;;;;;;;5.88;3.38;;;6.50;99.90;;;;;;5051596;28;20059;-51
2022/02/24 03:42:52;;;;;;;7.22;3.00;;;6.50;99.90;;;;;;5069842;28;20029;-55
2022/02/24 03:45:18;;;;;;;5.47;2.53;;;6.50;99.90;;;;;;5077422;28;20536;-55
2022/02/24 03:47:44;;;;;;;6.28;2.72;;;6.60;99.90;;;;;;5071063;28;20036;-53
2022/02/24 03:50:13;;;;;;;4.63;2.58;;;6.60;99.90;;;;;;5088072;28;20080;-54
2022/02/24 03:52:39;;;;;;;7.28;3.70;;;6.60;99.90;;;;;;5077711;28;20403;-52
2022/02/24 03:55:06;;;;;;;4.43;3.30;;;6.60;99.90;;;;;;5089400;28;20499;-52
2022/02/24 03:57:32;;;;;;;8.55;2.67;;;6.60;99.90;;;;;;5089143;28;20512;-53
2022/02/24 03:59:57;;;;;;;5.47;3.60;;;6.60;99.90;;;;;;5089319;28;20063;-54
2022/02/24 04:02:23;;;;;;;8.55;3.13;;;6.60;99.90;;;;;;5085227;28;20606;-55
2022/02/24 04:04:48;;;;;;;9.52;3.65;;;6.60;99.90;;;;;;5072258;28;20041;-54
2022/02/24 04:07:14;;;;;;;7.28;3.60;;;6.70;99.90;;;;;;5089593;28;20032;-52
2022/02/24 04:09:40;;;;;;;4.13;2.63;;;6.70;99.90;;;;;;5088786;28;20516;-52
2022/02/24 04:12:06;;;;;;;5.70;2.92;;;6.60;99.90;;;;;;5088779;28;20475;-54
2022/02/24 04:14:32;;;;;;;6.53;2.85;;;6.60;99.90;;;;;;5087595;28;20119;-54
2022/02/24 04:16:59;;;;;;;7.38;3.15;;;6.60;99.90;;;;;;5089191;28;20107;-55
2022/02/24 04:19:25;;;;;;;6.28;2.90;;;6.70;99.90;;;;;;5070884;28;20097;-55
2022/02/24 04:21:51;;;;;;;5.80;2.50;;;6.60;99.90;;;;;;5088783;28;20036;-54
2022/02/24 04:24:16;;;;;;;6.85;3.15;;;6.60;99.90;;;;;;5089067;28;20055;-56
2022/02/24 04:26:42;;;;;;;5.38;2.30;;;6.60;99.90;;;;;;5074429;28;20038;-53
2022/02/24 04:29:07;;;;;;;4.80;2.05;;;6.60;99.90;;;;;;5069113;28;20062;-51
2022/02/24 04:31:33;;;;;;;5.10;2.17;;;6.60;99.90;;;;;;5068661;28;20036;-55
2022/02/24 04:33:59;;;;;;;5.00;2.08;;;6.70;99.90;;;;;;5071061;28;21715;-52
2022/02/24 04:36:24;;;;;;;7.97;2.08;;;6.60;99.90;;;;;;5069537;28;20111;-50
2022/02/24 04:38:50;;;;;;;6.28;1.75;;;6.70;99.90;;;;;;5068975;28;20553;-55
2022/02/24 04:41:15;;;;;;;5.15;2.25;;;6.70;99.90;;;;;;5070836;28;20024;-56
2022/02/24 04:43:41;;;;;;;3.75;2.47;;;6.70;99.90;;;;;;5073030;28;20043;-53
2022/02/24 04:46:07;;;;;;;3.35;1.60;;;6.70;99.90;;;;;;5074340;28;20538;-55
2022/02/24 04:48:32;;;;;;;6.10;2.08;;;6.70;99.90;;;;;;5073166;28;20511;-52
2022/02/24 04:50:58;;;;;;;6.45;2.55;;;6.70;99.90;;;;;;5084792;28;20115;-53
2022/02/24 04:53:24;;;;;;;6.57;1.80;;;6.70;99.90;;;;;;5092996;28;20052;-53
2022/02/24 04:55:49;;;;;;;7.10;2.42;;;6.70;99.90;;;;;;5085983;28;20034;-51
2022/02/24 04:58:15;;;;;;;4.10;2.20;;;6.70;99.90;;;;;;5087719;28;20032;-57
2022/02/24 05:00:41;;;;;;;4.97;1.90;;;6.60;99.90;;;;;;5074879;28;20161;-52
2022/02/24 05:03:07;;;;;;;3.25;1.90;;;6.60;99.90;;;;;;5080070;28;20024;-51
2022/02/24 05:05:32;;;;;;;5.95;2.17;;;6.60;99.90;;;;;;5083787;28;20104;-52
2022/02/24 05:07:59;;;;;;;8.27;2.03;;;6.60;99.90;;;;;;5092826;28;20062;-56
2022/02/24 05:10:25;;;;;;;7.10;2.47;;;6.60;99.90;;;;;;5092571;28;20032;-51
2022/02/24 05:12:51;;;;;;;4.20;3.08;;;6.60;99.90;;;;;;5092868;28;20035;-52
2022/02/24 05:15:17;;;;;;;7.03;2.38;;;6.60;99.90;;;;;;5092206;28;20418;-56
2022/02/24 05:17:42;;;;;;;2.65;2.13;;;6.50;99.90;;;;;;5092370;28;20040;-56
2022/02/24 05:20:12;;;;;;;5.93;2.67;;;6.50;99.90;;;;;;5092337;28;20039;-55
2022/02/24 05:22:41;;;;;;;5.18;2.22;;;6.60;99.90;;;;;;5092468;28;20040;-54
2022/02/24 05:25:08;;;;;;;5.72;2.60;;;6.50;99.90;;;;;;5090898;28;20547;-55
2022/02/24 05:27:34;;;;;;;7.85;2.88;;;6.50;99.90;;;;;;5073358;28;20029;-51
2022/02/24 05:30:00;;;;;;;5.28;2.63;;;6.50;99.90;;;;;;5074438;28;20029;-56
2022/02/24 05:32:26;;;;;;;10.38;3.53;;;6.50;99.90;;;;;;5091671;28;20050;-54
2022/02/24 05:34:51;;;;;;;5.00;2.53;;;6.50;99.90;;;;;;5089085;28;20098;-56
2022/02/24 05:37:17;;;;;;;5.47;2.13;;;6.50;99.90;;;;;;5072199;28;20033;-54
2022/02/24 05:39:43;;;;;;;9.20;3.08;;;6.50;99.90;;;;;;5071860;28;20033;-56
2022/02/24 05:42:09;;;;;;;7.68;3.00;;;6.50;99.90;;;;;;5071826;28;20040;-57
2022/02/24 05:44:34;;;;;;;9.25;3.33;;;6.40;99.90;;;;;;5071616;28;20032;-51
2022/02/24 05:47:00;;;;;;;4.70;2.20;;;6.40;99.90;;;;;;5091062;28;20407;-57
2022/02/24 05:49:26;;;;;;;6.82;3.58;;;6.40;99.90;;;;;;5091463;28;20044;-55
2022/02/24 05:51:51;;;;;;;3.47;2.50;;;6.40;99.90;;;;;;5091039;28;20056;-54
2022/02/24 05:54:17;;;;;;;6.50;2.70;;;6.30;99.90;;;;;;5079635;28;20041;-54
2022/02/24 05:56:43;;;;;;;4.60;2.60;;;6.30;99.90;;;;;;5087634;28;20028;-52
2022/02/24 05:59:08;;;;;;;10.80;3.20;;;6.30;99.90;;;;;;5091552;28;20028;-54
2022/02/24 06:01:34;;;;;;;7.43;2.85;;;6.30;99.90;;;;;;5079556;28;20060;-53
2022/02/24 06:03:59;;;;;;;7.72;2.60;;;6.40;99.90;;;;;;5091176;28;20047;-55
2022/02/24 06:06:25;;;;;;;9.57;3.63;;;6.40;99.90;;;;;;5090818;28;20020;-53
2022/02/24 06:08:51;;;;;;;6.20;3.10;;;6.40;99.90;;;;;;5091219;28;20094;-55
2022/02/24 06:11:16;;;;;;;9.32;3.35;;;6.40;99.90;;;;;;5073073;28;20033;-56
2022/02/24 06:13:42;;;;;;;11.20;3.42;;;6.30;99.90;;;;;;5071348;28;20032;-53
2022/02/24 06:16:11;;;;;;;10.30;3.33;;;6.30;99.90;;;;;;5076794;28;20444;-55
2022/02/24 06:18:36;;;;;;;6.28;3.10;;;6.30;99.90;;;;;;5071625;28;20020;-56
2022/02/24 06:21:02;;;;;;;12.57;4.25;;;6.30;99.90;;;;;;5071283;28;20404;-55
2022/02/24 06:23:27;;;;;;;9.05;3.80;;;6.30;99.90;;;;;;5070760;28;20530;-55
2022/02/24 06:25:53;;;;;;;8.35;3.38;;;6.30;99.90;;;;;;5082530;28;20061;-56
2022/02/24 06:28:19;;;;;;;10.55;3.63;;;6.30;99.90;;;;;;5090930;28;20028;-53
2022/02/24 06:30:45;;;;;;;11.18;3.38;;;6.30;99.90;;;;;;5090885;28;20532;-52
2022/02/24 06:33:11;;;;;;;9.68;3.97;;;6.30;99.90;;;;;;5088829;28;20040;-56
2022/02/24 06:35:36;;;;;;;9.43;4.07;;;6.30;99.90;;;;;;5078286;28;20032;-57
2022/02/24 06:38:02;;;;;;;9.85;3.50;;;6.30;99.90;;;;;;5090155;28;20109;-54
2022/02/24 06:40:30;;;;;;;8.77;3.45;;;6.30;99.90;;;;;;5082744;28;20036;-55
2022/02/24 06:42:56;;;;;;;6.13;3.75;;;6.40;99.90;;;;;;5070685;28;20110;-56
2022/02/24 06:45:22;;;;;;;8.20;3.88;;;6.40;99.90;;;;;;5075571;28;20056;-53
2022/02/24 06:47:48;;;;;;;9.05;3.65;;;6.40;99.90;;;;;;5090686;28;20028;-57
2022/02/24 06:50:13;;;;;;;8.60;4.10;;;6.40;99.90;;;;;;5081701;28;20035;-53
2022/02/24 06:52:40;;;;;;;7.13;3.72;;;6.40;99.90;;;;;;5070283;28;20048;-56
2022/02/24 06:55:07;;;;;;;5.80;3.42;;;6.40;99.90;;;;;;5072086;28;20154;-52
2022/02/24 06:57:46;;;;;;;7.55;4.22;;;6.40;99.90;;;;;;5070737;28;20040;-55
2022/02/24 07:00:12;;;;;;;8.80;3.47;;;6.40;99.90;;;;;;5078127;28;20110;-54
2022/02/24 07:02:37;;;;;;;8.90;4.38;;;6.40;99.90;;;;;;5089974;28;20032;-57
2022/02/24 07:05:04;;;;;;;9.13;3.60;;;6.40;99.90;;;;;;5086335;28;20043;-54
2022/02/24 07:07:31;;;;;;;10.23;4.03;;;6.40;99.90;;;;;;5081653;28;20044;-56
2022/02/24 07:09:57;;;;;;;8.43;3.75;;;6.30;99.90;;;;;;5071869;28;20513;-55
2022/02/24 07:12:22;;;;;;;9.25;3.38;;;6.40;99.90;;;;;;5090075;28;20107;-57
2022/02/24 07:14:48;;;;;;;6.10;3.60;;;6.40;99.90;;;;;;5071474;28;20089;-55
2022/02/24 07:17:14;;;;;;;8.50;3.75;;;6.40;99.90;;;;;;5070867;28;20449;-56
2022/02/24 07:19:39;;;;;;;8.07;4.00;;;6.50;99.90;;;;;;5076488;28;20033;-55
2022/02/24 07:22:05;;;;;;;6.72;3.72;;;6.50;99.90;;;;;;5089921;28;20035;-51
2022/02/24 07:24:30;;;;;;;9.95;3.67;;;6.50;99.90;;;;;;5090151;28;20027;-57
2022/02/24 07:26:56;;;;;;;7.20;3.30;;;6.50;99.90;;;;;;5077983;28;20089;-52
2022/02/24 07:29:21;;;;;;;7.32;4.32;;;6.50;99.90;;;;;;5089435;28;20040;-56
2022/02/24 07:31:47;;;;;;;8.38;3.42;;;6.50;99.90;;;;;;5075179;28;20032;-54
2022/02/24 07:34:12;;;;;;;8.55;3.70;;;6.50;99.90;;;;;;5070259;28;20028;-56
2022/02/24 07:36:43;;;;;;;9.68;4.60;;;6.50;99.90;;;;;;5072239;28;20032;-53
2022/02/24 07:39:12;;;;;;;5.35;3.42;;;6.50;99.90;;;;;;5069559;28;20397;-55
2022/02/24 07:41:39;;;;;;;12.68;3.75;;;6.60;99.90;;;;;;5069796;28;20033;-56
2022/02/24 07:44:05;;;;;;;10.73;4.80;;;6.60;99.90;;;;;;5069745;28;20407;-54
2022/02/24 07:46:31;;;;;;;7.25;4.78;;;6.60;99.90;;;;;;5069345;28;20024;-53
2022/02/24 07:48:57;;;;;;;7.15;4.22;;;6.60;99.90;;;;;;5067853;28;20115;-54
2022/02/24 07:51:22;;;;;;;10.25;4.35;;;6.70;99.90;;;;;;5089515;28;20124;-56
2022/02/24 07:53:48;;;;;;;7.63;3.50;;;6.70;99.90;;;;;;5089774;28;20020;-55
2022/02/24 07:56:14;;;;;;;7.80;4.22;;;6.70;99.90;;;;;;5089837;28;20550;-54
2022/02/24 07:58:39;;;;;;;8.77;3.83;;;6.80;99.90;;;;;;5089682;28;20026;-54
2022/02/24 08:01:05;;;;;;;6.22;4.30;;;6.80;99.90;;;;;;5089653;28;20028;-50
2022/02/24 08:03:32;;;;;;;8.15;4.47;;;6.80;99.90;;;;;;5089565;28;20281;-54
2022/02/24 08:05:57;;;;;;;10.95;4.82;;;6.80;99.90;;;;;;5089748;28;20104;-55
2022/02/24 08:08:23;;;;;;;11.90;4.72;;;6.90;99.90;;;;;;5089400;28;20408;-56
2022/02/24 08:10:49;;;;;;;6.47;3.85;;;6.90;99.90;;;;;;5089796;28;20085;-56
2022/02/24 08:13:15;;;;;;;10.50;4.15;;;6.90;99.90;;;;;;5071379;28;20034;-56
2022/02/24 08:15:41;;;;;;;8.77;3.97;;;6.90;99.90;;;;;;5087765;28;20114;-56
2022/02/24 08:18:06;;;;;;;6.93;3.85;;;7.00;99.90;;;;;;5089301;28;20135;-52
2022/02/24 08:20:32;;;;;;;8.38;3.85;;;7.00;99.90;;;;;;5089095;28;20051;-51
2022/02/24 08:23:01;;;;;;;7.45;3.53;;;7.00;99.90;;;;;;5086618;28;20660;-52
2022/02/24 08:25:28;;;;;;;9.77;4.13;;;7.00;99.90;;;;;;5088762;28;20024;-55
2022/02/24 08:27:54;;;;;;;10.10;3.47;;;7.00;99.90;;;;;;5087468;28;20084;-52
2022/02/24 08:30:21;;;;;;;11.20;3.97;;;7.00;99.90;;;;;;5088742;28;20039;-50
2022/02/24 08:32:48;;;;;;;11.00;3.90;;;7.00;99.90;;;;;;5086907;28;20035;-54
2022/02/24 08:35:15;;;;;;;12.57;4.07;;;7.00;99.90;;;;;;5087688;28;20028;-55
2022/02/24 08:37:44;;;;;;;9.55;3.80;;;7.10;99.90;;;;;;5087065;28;20044;-56
2022/02/24 08:40:11;;;;;;;8.73;3.22;;;7.10;99.90;;;;;;5070821;28;20029;-54
2022/02/24 08:42:36;;;;;;;11.60;3.72;;;7.10;99.90;;;;;;5070207;28;20099;-54
2022/02/24 08:45:03;;;;;;;11.50;4.63;;;7.10;99.90;;;;;;5068914;28;20103;-53
2022/02/24 08:47:29;;;;;;;8.02;3.55;;;7.20;99.90;;;;;;5071260;28;20086;-56
2022/02/24 08:49:55;;;;;;;9.85;3.65;;;7.20;99.90;;;;;;5089306;28;20032;-55
2022/02/24 08:52:21;;;;;;;10.55;3.80;;;7.20;99.90;;;;;;5088325;28;20071;-54
2022/02/24 08:54:46;;;;;;;5.97;3.03;;;7.30;99.90;;;;;;5089160;28;20101;-51
2022/02/24 08:57:13;;;;;;;5.50;3.55;;;7.30;99.90;;;;;;5075418;28;20040;-54
2022/02/24 08:59:39;;;;;;;7.38;3.20;;;7.40;99.90;;;;;;5070518;28;20024;-53
2022/02/24 09:02:05;;;;;;;8.55;4.00;;;7.50;99.90;;;;;;5074792;28;20032;-53
2022/02/24 09:04:31;;;;;;;12.40;3.22;;;7.50;99.90;;;;;;5074577;28;20024;-53
2022/02/24 09:06:57;;;;;;;6.85;3.35;;;7.60;99.90;;;;;;5076047;28;20511;-55
2022/02/24 09:09:25;;;;;;;4.80;2.83;;;7.60;99.90;;;;;;5076633;28;20562;-54
2022/02/24 09:11:51;;;;;;;6.70;2.60;;;7.70;99.90;;;;;;5068704;28;20029;-53
2022/02/24 09:14:16;;;;;;;7.35;2.78;;;7.70;99.90;;;;;;5068929;28;20033;-52
2022/02/24 09:16:45;;;;;;;8.32;3.13;;;7.80;99.90;;;;;;5069057;28;20082;-55
2022/02/24 09:19:12;;;;;;;5.72;2.80;;;7.80;99.90;;;;;;5068615;28;20112;-54
2022/02/24 09:21:38;;;;;;;5.03;2.72;;;7.90;99.90;;;;;;5068578;28;20033;-54
2022/02/24 09:24:04;;;;;;;4.18;1.88;;;7.90;99.90;;;;;;5074796;28;20028;-55
2022/02/24 09:26:30;;;;;;;14.65;2.97;;;8.00;99.90;;;;;;5077433;28;20099;-55
2022/02/24 09:28:56;;;;;;;5.88;2.75;;;8.10;99.90;;;;;;5087043;28;20028;-54
2022/02/24 09:31:22;;;;;;;8.82;2.80;;;8.10;99.90;;;;;;5071878;28;20078;-51
2022/02/24 09:33:48;;;;;;;7.18;2.40;;;8.20;99.90;;;;;;5071696;28;20024;-50
2022/02/24 09:36:13;;;;;;;4.57;2.05;;;8.20;99.90;;;;;;5059446;28;20028;-55
2022/02/24 09:38:39;;;;;;;5.80;2.47;;;8.20;99.90;;;;;;5076508;28;20123;-52
2022/02/24 09:41:05;;;;;;;8.93;3.35;;;8.30;99.90;;;;;;5088310;28;20036;-51
2022/02/24 09:43:33;;;;;;;7.90;2.92;;;8.40;99.90;;;;;;5057524;28;20034;-53
2022/02/24 09:46:05;;;;;;;9.35;3.10;;;8.50;99.90;;;;;;5072220;28;20026;-55
2022/02/24 09:48:33;;;;;;;7.28;2.63;;;8.50;99.90;;;;;;5072080;28;20039;-58
2022/02/24 09:51:00;;;;;;;5.13;2.30;;;8.60;99.90;;;;;;5071952;28;20381;-51
2022/02/24 09:53:27;;;;;;;8.65;2.33;;;8.70;99.90;;;;;;5072483;28;20132;-58
2022/02/24 09:55:54;;;;;;;10.23;2.28;;;8.70;99.90;;;;;;5073304;28;20119;-54
2022/02/24 09:58:21;;;;;;;7.03;2.83;;;8.70;99.90;;;;;;5072482;28;20028;-56
2022/02/24 10:00:48;;;;;;;7.78;2.50;;;8.60;99.90;;;;;;5072952;28;20036;-53
2022/02/24 10:03:33;;;;;;;6.43;1.90;;;8.60;99.90;;;;;;5071521;28;20112;-53
2022/02/24 10:06:00;;;;;;;6.57;2.95;;;8.70;99.90;;;;;;5073012;28;20369;-56
2022/02/24 10:08:31;;;;;;;4.60;2.22;;;8.70;99.90;;;;;;5071580;28;20036;-56
2022/02/24 10:10:59;;;;;;;7.28;2.90;;;8.60;99.90;;;;;;5071927;28;20107;-57
2022/02/24 10:13:25;;;;;;;8.27;2.00;;;8.70;99.90;;;;;;5071117;28;20099;-53
2022/02/24 10:15:55;;;;;;;6.07;2.35;;;8.70;99.90;;;;;;5072652;28;20555;-53
2022/02/24 10:18:25;;;;;;;6.65;2.28;;;8.70;99.90;;;;;;5053314;28;20503;-55
2022/02/24 10:20:55;;;;;;;6.68;2.20;;;8.80;99.90;;;;;;5075198;28;20082;-54
2022/02/24 10:23:29;;;;;;;8.60;2.10;;;8.80;99.90;;;;;;5090256;28;20023;-54
2022/02/24 10:26:03;;;;;;;2.75;1.92;;;8.80;99.90;;;;;;5071330;28;20446;-53
2022/02/24 10:28:35;;;;;;;8.05;2.42;;;8.90;99.90;;;;;;5071181;28;20597;-51
2022/02/24 10:31:07;;;;;;;4.40;2.08;;;8.90;99.90;;;;;;5053043;28;20029;-53
2022/02/24 10:33:33;;;;;;;4.65;2.20;;;8.90;99.90;;;;;;5076480;28;20063;-54
2022/02/24 10:36:16;;;;;;;5.90;2.03;;;8.90;99.90;;;;;;5072433;28;20039;-56
2022/02/24 10:39:01;;;;;;;7.45;2.10;;;8.90;99.90;;;;;;5076605;28;20091;-52
2022/02/24 10:41:32;;;;;;;6.32;2.10;;;8.90;99.90;;;;;;5051994;28;20444;-56
2022/02/24 10:44:33;;;;;;;9.85;2.47;;;8.90;99.90;;;;;;5077096;28;20560;-56
2022/02/24 10:47:04;;;;;;;6.57;2.42;;;9.00;99.90;;;;;;5038961;28;20031;-52
2022/02/24 10:49:36;;;;;;;5.45;2.20;;;9.00;99.90;;;;;;5072650;28;20035;-55
2022/02/24 10:52:18;;;;;;;7.03;1.73;;;9.00;99.90;;;;;;5090128;28;20099;-55
2022/02/24 10:55:04;;;;;;;6.63;2.33;;;9.00;99.90;;;;;;5055410;28;20039;-55
2022/02/24 10:57:30;;;;;;;6.63;2.45;;;9.00;99.90;;;;;;5071771;28;20020;-55
2022/02/24 10:59:57;;;;;;;3.88;2.15;;;9.00;99.90;;;;;;5069503;28;20522;-53
2022/02/24 11:02:25;;;;;;;5.38;2.70;;;9.00;99.90;;;;;;5114176;23;20495;-48
2022/02/24 11:04:52;;;;;;;9.88;3.15;;;9.10;99.90;;;;;;5110758;28;20016;-52
2022/02/24 11:07:17;;;;;;;5.85;2.22;;;9.10;99.90;;;;;;5092994;28;20114;-48
2022/02/24 11:09:45;;;;;;;6.35;2.33;;;9.10;99.90;;;;;;5092746;28;20202;-52
2022/02/24 11:12:15;;;;;;;3.92;2.53;;;9.10;99.90;;;;;;5110933;28;20042;-53
2022/02/24 11:14:41;;;;;;;8.30;3.30;;;9.10;99.90;;;;;;5111271;28;20151;-53
2022/02/24 11:17:11;;;;;;;7.47;2.90;;;9.10;99.90;;;;;;5111403;28;20058;-48
2022/02/24 11:19:38;;;;;;;5.60;2.25;;;9.10;99.90;;;;;;5110794;28;20036;-50
2022/02/24 11:22:07;;;;;;;8.38;3.10;;;9.10;99.90;;;;;;5111045;28;20092;-52
2022/02/24 11:24:34;;;;;;;5.68;2.40;;;9.20;99.90;;;;;;5109915;28;20028;-51
2022/02/24 11:27:14;;;;;;;5.60;3.03;;;9.30;99.90;;;;;;5110950;28;20027;-50
2022/02/24 11:29:47;;;;;;;5.78;2.83;;;9.30;99.90;;;;;;5110380;28;20028;-51
2022/02/24 11:32:15;;;;;;;7.63;2.47;;;9.40;99.90;;;;;;5110597;28;20031;-48
2022/02/24 11:35:07;;;;;;;5.72;2.95;;;9.50;99.90;;;;;;5110512;28;20031;-50
2022/02/24 11:37:38;;;;;;;9.23;3.05;;;9.50;99.90;;;;;;5110756;28;20053;-49
2022/02/24 11:40:19;;;;;;;7.32;2.85;;;9.50;99.90;;;;;;5105996;28;20028;-52
2022/02/24 11:43:00;;;;;;;7.50;2.30;;;9.50;99.90;;;;;;5110223;28;20028;-49
2022/02/24 11:45:26;;;;;;;4.88;2.42;;;9.60;99.90;;;;;;5092419;28;20140;-51
2022/02/24 11:47:56;;;;;;;10.20;3.10;;;9.50;99.90;;;;;;5110491;28;20079;-49
2022/02/24 11:50:32;;;;;;;7.78;2.25;;;9.40;99.90;;;;;;5110283;28;20023;-50
2022/02/24 11:52:58;;;;;;;17.98;9.75;;;9.40;99.90;;;;;;5110109;28;20493;-49
2022/02/24 11:55:47;;;;;;;6.25;2.95;;;9.40;99.90;;;;;;5117819;27;20042;-49
2022/02/24 11:58:37;;;;;;;5.53;3.08;;;9.40;99.90;;;;;;5130265;27;20023;-48
2022/02/24 12:01:14;;;;;;;6.38;2.78;;;9.40;99.90;;;;;;5121020;27;20124;-49
2022/02/24 12:03:45;;;;;;;5.25;2.90;;;9.40;99.90;;;;;;5126622;27;20486;-47
2022/02/24 12:06:13;;;;;;;8.07;3.58;;;9.40;99.90;;;;;;5109344;27;20503;-50
2022/02/24 12:09:03;;;;;;;6.65;3.00;;;9.40;99.90;;;;;;5125356;27;20027;-49
2022/02/24 12:11:39;;;;;;;4.85;2.58;;;9.60;99.90;;;;;;5118034;27;20031;-54
2022/02/24 12:14:20;;;;;;;9.52;3.28;;;9.60;99.90;;;;;;5109213;27;20030;-47
2022/02/24 12:17:01;;;;;;;5.82;2.83;;;9.70;99.90;;;;;;5128591;27;20027;-46
2022/02/24 12:19:55;;;;;;;7.75;3.72;;;9.70;99.90;;;;;;5128946;27;20046;-49
2022/02/24 12:22:34;;;;;;;7.85;3.05;;;9.70;99.90;;;;;;5126164;27;20095;-54
2022/02/24 12:25:23;;;;;;;7.47;2.75;;;9.70;99.90;;;;;;5124347;27;20019;-50
2022/02/24 12:28:05;;;;;;;8.98;3.20;;;9.70;99.90;;;;;;5126037;27;20509;-52
2022/02/24 12:30:37;;;;;;;7.85;2.95;;;9.70;99.90;;;;;;5125867;27;20150;-52
2022/02/24 12:33:09;;;;;;;9.95;3.00;;;9.80;99.90;;;;;;5129379;27;20136;-54
2022/02/24 12:35:38;;;;;;;6.80;2.40;;;9.90;99.90;;;;;;5128234;27;20043;-50
2022/02/24 12:38:05;;;;;;;9.40;2.80;;;9.90;99.90;;;;;;5129960;27;20115;-49
2022/02/24 12:40:38;;;;;;;5.28;2.83;;;9.90;99.90;;;;;;5102666;28;20504;-50
2022/02/24 12:43:06;;;;;;;6.22;2.28;;;9.90;99.90;;;;;;5129382;28;20465;-49
2022/02/24 12:45:33;;;;;;;8.15;2.80;;;9.90;99.90;;;;;;5124779;28;20031;-50
2022/02/24 12:48:00;;;;;;;6.93;2.53;;;9.80;99.90;;;;;;5103110;28;20031;-51
2022/02/24 12:50:33;;;;;;;4.32;2.03;;;9.70;99.90;;;;;;5112289;28;20024;-51
2022/02/24 12:53:20;;;;;;;4.82;2.38;;;9.60;99.90;;;;;;5126764;28;20034;-48
2022/02/24 12:55:46;;;;;;;5.07;2.63;;;9.60;99.90;;;;;;5120691;28;20030;-49
2022/02/24 12:58:16;;;;;;;4.28;2.15;;;9.60;99.90;;;;;;5109697;28;20168;-49